createdAt,value
2018-04-23T00:02:04.379Z,46.98
2018-04-23T00:04:31.865Z,45.19
2018-04-23T00:06:59.426Z,45.80
2018-04-23T00:09:26.946Z,46.63
2018-04-23T00:11:54.432Z,44.48
2018-04-23T00:14:21.923Z,45.93
2018-04-23T00:16:49.449Z,43.86
2018-04-23T00:19:16.936Z,45.19
2018-04-23T00:21:44.438Z,47.18
2018-04-23T00:24:11.905Z,48.83
2018-04-23T00:26:39.383Z,43.83
2018-04-23T00:29:07.058Z,46.42
2018-04-23T00:31:34.672Z,44.79
2018-04-23T00:34:02.155Z,48.78
2018-04-23T00:36:29.626Z,45.88
2018-04-23T00:38:57.256Z,45.88
2018-04-23T00:41:24.754Z,46.62
2018-04-23T00:43:52.230Z,46.72
2018-04-23T00:46:19.719Z,46.67
2018-04-23T00:48:47.213Z,47.20
2018-04-23T00:51:14.845Z,47.73
2018-04-23T00:53:42.306Z,46.86
2018-04-23T00:56:09.772Z,47.36
2018-04-23T00:58:37.252Z,47.31
2018-04-23T01:01:04.788Z,47.33
2018-04-23T01:03:32.250Z,47.73
2018-04-23T01:05:59.735Z,47.85
2018-04-23T01:08:27.217Z,47.33
2018-04-23T01:10:54.752Z,47.63
2018-04-23T01:13:22.219Z,47.37
2018-04-23T01:15:49.720Z,49.58
2018-04-23T01:18:17.218Z,48.58
2018-04-23T01:20:44.698Z,49.78
2018-04-23T01:23:12.269Z,48.64
2018-04-23T01:25:39.774Z,49.08
2018-04-23T01:28:07.263Z,47.64
2018-04-23T01:30:34.773Z,47.64
2018-04-23T01:33:02.241Z,47.52
2018-04-23T01:35:29.753Z,49.25
2018-04-23T01:37:57.245Z,48.78
2018-04-23T01:40:24.731Z,48.05
2018-04-23T01:42:52.233Z,47.65
2018-04-23T01:45:19.725Z,47.64
2018-04-23T01:47:47.215Z,49.84
2018-04-23T01:50:14.687Z,49.16
2018-04-23T01:52:42.162Z,48.58
2018-04-23T01:55:09.772Z,50.64
2018-04-23T01:57:37.317Z,49.59
2018-04-23T02:00:04.879Z,49.57
2018-04-23T02:02:32.350Z,49.22
2018-04-23T02:04:59.822Z,50.06
2018-04-23T02:07:27.298Z,48.04
2018-04-23T02:09:54.786Z,50.10
2018-04-23T02:12:22.676Z,48.56
2018-04-23T02:14:50.212Z,50.55
2018-04-23T02:17:17.674Z,48.85
2018-04-23T02:19:45.158Z,49.35
2018-04-23T02:22:12.656Z,49.14
2018-04-23T02:24:40.202Z,49.00
2018-04-23T02:27:07.730Z,49.49
2018-04-23T02:29:35.220Z,48.25
2018-04-23T02:32:02.703Z,51.88
2018-04-23T02:34:30.166Z,48.83
2018-04-23T02:36:57.677Z,48.54
2018-04-23T02:39:25.167Z,50.64
2018-04-23T02:41:52.708Z,46.42
2018-04-23T02:44:20.210Z,47.92
2018-04-23T02:46:47.762Z,47.49
2018-04-23T02:49:15.247Z,48.45
2018-04-23T02:51:42.723Z,49.16
2018-04-23T02:54:10.205Z,49.17
2018-04-23T02:56:37.702Z,47.31
2018-04-23T02:59:05.192Z,49.93
2018-04-23T03:01:32.754Z,49.41
2018-04-23T03:04:00.221Z,51.67
2018-04-23T03:06:27.679Z,50.52
2018-04-23T03:08:55.270Z,47.69
2018-04-23T03:11:22.762Z,49.17
2018-04-23T03:13:50.264Z,48.56
2018-04-23T03:16:17.750Z,51.52
2018-04-23T03:18:45.236Z,49.04
2018-04-23T03:21:12.700Z,49.67
2018-04-23T03:23:40.163Z,48.28
2018-04-23T03:26:07.646Z,48.87
2018-04-23T03:28:35.145Z,48.35
2018-04-23T03:31:02.610Z,50.65
2018-04-23T03:33:30.127Z,50.22
2018-04-23T03:35:57.598Z,50.21
2018-04-23T03:38:25.082Z,50.44
2018-04-23T03:40:52.573Z,49.74
2018-04-23T03:43:20.041Z,49.62
2018-04-23T03:45:47.536Z,49.14
2018-04-23T03:48:15.204Z,48.78
2018-04-23T03:50:42.744Z,48.96
2018-04-23T03:53:10.221Z,48.33
2018-04-23T03:55:37.906Z,48.86
2018-04-23T03:58:05.412Z,48.62
2018-04-23T04:00:33.276Z,48.22
2018-04-23T04:03:00.764Z,48.84
2018-04-23T04:05:28.244Z,49.14
2018-04-23T04:07:55.737Z,49.79
2018-04-23T04:10:23.212Z,47.94
2018-04-23T04:13:02.517Z,50.67
2018-04-23T04:15:41.869Z,47.69
2018-04-23T04:21:10.322Z,48.66
2018-04-23T04:23:37.809Z,49.80
2018-04-23T04:26:05.318Z,48.88
2018-04-23T04:28:32.793Z,49.04
2018-04-23T04:31:00.283Z,47.42
2018-04-23T04:33:27.766Z,49.19
2018-04-23T04:35:55.269Z,49.15
2018-04-23T04:38:22.756Z,52.63
2018-04-23T04:40:50.263Z,51.49
2018-04-23T04:43:17.752Z,51.60
2018-04-23T04:45:45.230Z,49.60
2018-04-23T04:48:12.708Z,49.21
2018-04-23T04:50:40.195Z,52.45
2018-04-23T04:53:07.695Z,49.92
2018-04-23T04:55:35.179Z,50.27
2018-04-23T04:58:02.687Z,52.12
2018-04-23T05:00:30.310Z,48.07
2018-04-23T05:02:57.793Z,47.63
2018-04-23T05:05:25.303Z,48.93
2018-04-23T05:07:52.770Z,51.35
2018-04-23T05:10:20.248Z,50.27
2018-04-23T05:12:47.749Z,48.46
2018-04-23T05:15:15.265Z,48.84
2018-04-23T05:20:33.278Z,49.42
2018-04-23T05:23:00.751Z,48.31
2018-04-23T05:25:28.240Z,48.56
2018-04-23T05:27:55.733Z,47.11
2018-04-23T05:30:23.222Z,50.09
2018-04-23T05:32:50.724Z,49.38
2018-04-23T05:35:18.206Z,46.88
2018-04-23T05:37:45.701Z,48.45
2018-04-23T05:40:13.172Z,46.83
2018-04-23T05:42:40.648Z,46.00
2018-04-23T05:45:08.118Z,46.83
2018-04-23T05:47:35.584Z,47.08
2018-04-23T05:50:03.094Z,47.04
2018-04-23T05:52:30.719Z,44.98
2018-04-23T05:54:58.240Z,44.39
2018-04-23T05:57:25.736Z,45.28
2018-04-23T05:59:53.250Z,43.84
2018-04-23T06:02:20.729Z,44.10
2018-04-23T06:04:48.199Z,44.65
2018-04-23T06:07:15.698Z,43.07
2018-04-23T06:09:43.190Z,44.71
2018-04-23T06:12:10.701Z,44.47
2018-04-23T06:14:38.174Z,44.20
2018-04-23T06:17:05.662Z,43.89
2018-04-23T06:19:33.157Z,44.72
2018-04-23T06:22:00.783Z,44.05
2018-04-23T06:24:28.274Z,42.10
2018-04-23T06:26:55.762Z,43.31
2018-04-23T06:29:23.245Z,42.31
2018-04-23T06:31:50.776Z,43.12
2018-04-23T06:34:18.275Z,41.80
2018-04-23T06:36:45.747Z,43.04
2018-04-23T06:39:13.230Z,42.31
2018-04-23T06:41:40.700Z,42.45
2018-04-23T06:44:08.165Z,42.89
2018-04-23T06:46:35.682Z,41.96
2018-04-23T06:49:03.183Z,42.26
2018-04-23T06:51:30.679Z,41.75
2018-04-23T06:53:58.173Z,42.28
2018-04-23T06:56:25.645Z,42.31
2018-04-23T06:58:53.128Z,42.82
2018-04-23T07:01:20.656Z,43.16
2018-04-23T07:03:48.133Z,41.90
2018-04-23T07:06:15.592Z,41.05
2018-04-23T07:08:43.136Z,41.11
2018-04-23T07:11:10.600Z,42.19
2018-04-23T07:13:38.076Z,41.93
2018-04-23T07:16:05.558Z,42.23
2018-04-23T07:18:33.040Z,39.33
2018-04-23T07:21:00.579Z,40.61
2018-04-23T07:23:28.076Z,39.21
2018-04-23T07:25:55.579Z,39.16
2018-04-23T07:28:23.076Z,38.69
2018-04-23T07:30:50.663Z,39.50
2018-04-23T07:33:18.130Z,38.09
2018-04-23T07:35:45.687Z,38.39
2018-04-23T07:38:13.185Z,40.17
2018-04-23T07:40:40.694Z,38.75
2018-04-23T07:43:08.184Z,40.19
2018-04-23T07:45:35.668Z,41.11
2018-04-23T07:48:03.138Z,42.43
2018-04-23T07:50:30.618Z,43.40
2018-04-23T07:52:58.091Z,43.71
2018-04-23T07:55:25.586Z,44.02
2018-04-23T07:57:53.170Z,43.38
2018-04-23T08:00:20.649Z,44.03
2018-04-23T08:02:48.124Z,44.64
2018-04-23T08:05:15.632Z,44.22
2018-04-23T08:07:43.116Z,44.47
2018-04-23T08:10:10.653Z,44.95
2018-04-23T08:12:38.136Z,45.58
2018-04-23T08:15:05.628Z,45.62
2018-04-23T08:17:33.200Z,46.74
2018-04-23T08:20:00.684Z,46.53
2018-04-23T08:22:28.291Z,46.52
2018-04-23T08:24:55.759Z,47.55
2018-04-23T08:27:23.256Z,47.50
2018-04-23T08:29:50.735Z,48.07
2018-04-23T08:32:18.205Z,48.31
2018-04-23T08:34:45.680Z,49.17
2018-04-23T08:37:13.164Z,50.15
2018-04-23T08:39:40.622Z,50.52
2018-04-23T08:42:08.140Z,51.27
2018-04-23T08:44:35.776Z,52.23
2018-04-23T08:47:03.293Z,53.98
2018-04-23T08:49:30.759Z,54.11
2018-04-23T08:51:58.228Z,56.41
2018-04-23T08:54:25.716Z,57.44
2018-04-23T08:56:53.208Z,58.97
2018-04-23T08:59:20.688Z,59.71
2018-04-23T09:01:48.161Z,60.54
2018-04-23T09:04:15.626Z,58.90
2018-04-23T09:06:43.123Z,57.79
2018-04-23T09:09:10.686Z,56.84
2018-04-23T09:11:38.210Z,54.54
2018-04-23T09:14:05.661Z,55.12
2018-04-23T09:16:33.120Z,53.84
2018-04-23T09:19:00.585Z,51.91
2018-04-23T09:21:28.053Z,53.86
2018-04-23T09:23:55.525Z,53.56
2018-04-23T09:26:22.997Z,52.64
2018-04-23T09:28:50.496Z,54.43
2018-04-23T09:31:17.958Z,55.28
2018-04-23T09:33:45.432Z,51.50
2018-04-23T09:36:17.791Z,51.54
2018-04-23T09:38:45.275Z,49.21
2018-04-23T09:41:12.752Z,46.50
2018-04-23T09:43:40.238Z,46.59
2018-04-23T09:46:07.720Z,46.61
2018-04-23T09:48:35.198Z,47.16
2018-04-23T09:51:02.690Z,47.76
2018-04-23T09:53:30.154Z,48.36
2018-04-23T09:55:57.614Z,47.85
2018-04-23T09:58:25.094Z,45.77
2018-04-23T10:00:52.800Z,43.28
2018-04-23T10:03:20.281Z,42.19
2018-04-23T10:05:47.765Z,43.49
2018-04-23T10:08:15.238Z,42.25
2018-04-23T10:10:42.732Z,42.14
2018-04-23T10:13:10.202Z,45.84
2018-04-23T10:15:38.006Z,44.40
2018-04-23T10:18:05.483Z,45.51
2018-04-23T10:20:32.998Z,44.40
2018-04-23T10:23:00.509Z,43.60
2018-04-23T10:25:28.022Z,43.83
2018-04-23T10:27:55.474Z,46.35
2018-04-23T10:30:23.026Z,44.48
2018-04-23T10:32:50.530Z,46.31
2018-04-23T10:35:18.034Z,47.84
2018-04-23T10:37:45.530Z,48.44
2018-04-23T10:40:13.006Z,47.36
2018-04-23T10:42:40.470Z,49.15
2018-04-23T10:45:07.965Z,49.22
2018-04-23T10:47:35.457Z,50.03
2018-04-23T10:50:02.953Z,50.24
2018-04-23T10:52:30.439Z,48.51
2018-04-23T10:54:58.022Z,49.49
2018-04-23T10:57:25.490Z,53.09
2018-04-23T10:59:52.965Z,49.33
2018-04-23T11:02:20.454Z,47.61
2018-04-23T11:04:47.984Z,49.20
2018-04-23T11:07:15.459Z,46.01
2018-04-23T11:09:43.025Z,45.73
2018-04-23T11:12:10.508Z,48.04
2018-04-23T11:14:38.378Z,46.35
2018-04-23T11:17:05.961Z,47.71
2018-04-23T11:19:33.450Z,44.01
2018-04-23T11:22:00.933Z,43.25
2018-04-23T11:24:28.418Z,43.61
2018-04-23T11:26:56.181Z,41.72
2018-04-23T11:29:23.684Z,43.75
2018-04-23T11:31:51.162Z,42.85
2018-04-23T11:34:18.691Z,44.40
2018-04-23T11:36:46.214Z,46.20
2018-04-23T11:39:13.690Z,43.81
2018-04-23T11:41:41.165Z,46.78
2018-04-23T11:44:08.732Z,46.53
2018-04-23T11:46:36.223Z,43.06
2018-04-23T11:49:03.696Z,44.28
2018-04-23T11:51:31.171Z,44.19
2018-04-23T11:53:58.632Z,43.46
2018-04-23T11:56:26.099Z,45.62
2018-04-23T11:58:53.593Z,42.73
2018-04-23T12:01:21.103Z,45.60
2018-04-23T12:03:48.579Z,46.09
2018-04-23T12:06:16.054Z,45.92
2018-04-23T12:08:43.533Z,47.22
2018-04-23T12:11:11.022Z,46.62
2018-04-23T12:13:38.508Z,49.54
2018-04-23T12:16:05.981Z,49.59
2018-04-23T12:18:33.478Z,50.70
2018-04-23T12:21:00.997Z,49.09
2018-04-23T12:23:28.550Z,49.70
2018-04-23T12:25:56.040Z,53.35
2018-04-23T12:28:23.536Z,54.01
2018-04-23T12:30:51.165Z,55.05
2018-04-23T12:33:18.648Z,57.23
2018-04-23T12:35:46.150Z,59.75
2018-04-23T12:38:13.636Z,61.00
2018-04-23T12:40:41.135Z,58.82
2018-04-23T12:43:08.604Z,58.83
2018-04-23T12:45:36.088Z,59.48
2018-04-23T12:48:03.576Z,59.68
2018-04-23T12:50:31.037Z,59.99
2018-04-23T12:52:58.589Z,58.59
2018-04-23T12:55:26.042Z,61.40
2018-04-23T12:57:53.525Z,60.04
2018-04-23T13:00:20.982Z,57.65
2018-04-23T13:02:48.450Z,56.89
2018-04-23T13:05:15.909Z,58.29
2018-04-23T13:07:43.506Z,57.10
2018-04-23T13:10:10.976Z,56.99
2018-04-23T13:12:40.583Z,54.44
2018-04-23T13:15:08.147Z,54.81
2018-04-23T13:17:35.628Z,55.15
2018-04-23T13:20:03.129Z,55.48
2018-04-23T13:22:30.587Z,54.99
2018-04-23T13:24:58.209Z,53.61
2018-04-23T13:27:25.780Z,53.43
2018-04-23T13:29:53.243Z,51.15
2018-04-23T13:32:20.751Z,51.74
2018-04-23T13:34:48.224Z,51.35
2018-04-23T13:37:15.699Z,49.93
2018-04-23T13:39:43.182Z,47.23
2018-04-23T13:42:10.687Z,44.92
2018-04-23T13:44:38.262Z,43.80
2018-04-23T13:47:05.754Z,40.58
2018-04-23T13:49:33.245Z,37.17
2018-04-23T13:52:00.926Z,31.69
2018-04-23T13:54:28.431Z,28.99
2018-04-23T13:56:55.962Z,28.54
2018-04-23T13:59:23.559Z,27.51
2018-04-23T14:01:51.499Z,29.02
2018-04-23T14:04:19.121Z,26.61
2018-04-23T14:06:46.635Z,26.90
2018-04-23T14:09:14.165Z,26.04
2018-04-23T14:11:41.606Z,27.12
2018-04-23T14:14:21.862Z,27.75
2018-04-23T14:16:52.312Z,24.93
2018-04-23T14:19:37.996Z,26.25
2018-04-23T14:22:13.536Z,25.26
2018-04-23T14:24:41.089Z,26.04
2018-04-23T14:27:09.562Z,25.67
2018-04-23T14:29:37.045Z,24.98
2018-04-23T14:32:04.627Z,23.52
2018-04-23T14:34:32.112Z,24.74
2018-04-23T14:36:59.600Z,23.94
2018-04-23T14:39:27.115Z,23.48
2018-04-23T14:41:54.611Z,25.02
2018-04-23T14:44:22.130Z,24.94
2018-04-23T14:46:49.590Z,26.41
2018-04-23T14:49:17.098Z,26.56
2018-04-23T14:51:44.649Z,26.54
2018-04-23T14:54:12.135Z,26.52
2018-04-23T14:56:46.653Z,26.03
2018-04-23T14:59:14.166Z,26.46
2018-04-23T15:01:41.762Z,28.04
2018-04-23T15:04:09.376Z,25.52
2018-04-23T15:06:37.458Z,23.96
2018-04-23T15:09:04.942Z,23.08
2018-04-23T15:11:32.629Z,22.62
2018-04-23T15:19:41.434Z,27.59
2018-04-23T15:22:08.930Z,30.16
2018-04-23T15:24:37.485Z,30.87
2018-04-23T15:27:05.000Z,34.54
2018-04-23T15:29:32.474Z,37.46
2018-04-23T15:32:00.645Z,40.46
2018-04-23T15:34:28.162Z,42.33
2018-04-23T15:36:56.272Z,42.10
2018-04-23T15:39:23.833Z,43.87
2018-04-23T15:41:51.403Z,45.64
2018-04-23T15:44:19.169Z,46.70
2018-04-23T15:46:46.824Z,48.25
2018-04-23T15:49:14.385Z,49.35
2018-04-23T15:51:41.867Z,50.36
2018-04-23T15:54:09.359Z,51.15
2018-04-23T15:56:36.921Z,52.18
2018-04-23T15:59:04.419Z,52.79
2018-04-23T16:01:31.933Z,54.74
2018-04-23T16:03:59.471Z,53.63
2018-04-23T16:06:27.014Z,54.22
2018-04-23T16:08:55.254Z,54.51
2018-04-23T16:11:23.906Z,55.00
2018-04-23T16:13:51.520Z,54.18
2018-04-23T16:16:18.993Z,54.23
2018-04-23T16:18:46.479Z,54.51
2018-04-23T16:21:13.985Z,54.83
2018-04-23T16:23:41.569Z,55.50
2018-04-23T16:26:09.183Z,55.55
2018-04-23T16:28:36.704Z,55.01
2018-04-23T16:31:04.308Z,54.16
2018-04-23T16:33:31.862Z,54.18
2018-04-23T16:35:59.373Z,54.81
2018-04-23T16:38:26.872Z,55.07
2018-04-23T16:40:54.513Z,55.28
2018-04-23T16:43:22.024Z,55.53
2018-04-23T16:45:49.503Z,54.74
2018-04-23T16:48:16.961Z,55.60
2018-04-23T16:50:44.450Z,55.67
2018-04-23T16:53:12.062Z,55.47
2018-04-23T16:55:39.640Z,55.11
2018-04-23T16:58:07.155Z,55.46
2018-04-23T17:00:34.955Z,56.02
2018-04-23T17:03:02.408Z,56.32
2018-04-23T17:05:32.639Z,56.16
2018-04-23T17:08:00.223Z,56.09
2018-04-23T17:10:33.582Z,54.70
2018-04-23T17:13:04.138Z,56.11
2018-04-23T17:15:31.782Z,55.82
2018-04-23T17:18:15.866Z,56.35
2018-04-23T17:20:53.061Z,56.84
2018-04-23T17:23:28.676Z,56.74
2018-04-23T17:25:59.418Z,56.76
2018-04-23T17:28:30.794Z,56.84
2018-04-23T17:31:13.760Z,56.09
2018-04-23T17:33:44.506Z,56.02
2018-04-23T17:36:25.397Z,56.51
2018-04-23T17:38:55.295Z,56.65
2018-04-23T17:41:25.237Z,56.40
2018-04-23T17:43:53.823Z,56.48
2018-04-23T17:46:32.714Z,56.46
2018-04-23T17:49:00.792Z,56.51
2018-04-23T17:51:28.263Z,56.55
2018-04-23T17:53:59.893Z,55.98
2018-04-23T17:56:27.486Z,59.58
2018-04-23T17:58:55.558Z,60.05
2018-04-23T18:01:23.137Z,57.67
2018-04-23T18:03:50.615Z,57.02
2018-04-23T18:06:19.076Z,58.29
2018-04-23T18:08:46.566Z,57.98
2018-04-23T18:11:14.033Z,54.44
2018-04-23T18:13:41.491Z,54.31
2018-04-23T18:16:08.968Z,54.33
2018-04-23T18:18:36.458Z,53.53
2018-04-23T18:21:04.433Z,54.67
2018-04-23T18:23:31.911Z,56.03
2018-04-23T18:25:59.476Z,54.92
2018-04-23T18:28:27.198Z,53.41
2018-04-23T18:30:54.686Z,55.19
2018-04-23T18:33:22.166Z,56.93
2018-04-23T18:35:50.268Z,56.94
2018-04-23T18:38:17.845Z,55.87
2018-04-23T18:40:45.515Z,56.63
2018-04-23T18:43:13.138Z,56.65
2018-04-23T18:45:40.660Z,56.56
2018-04-23T18:48:08.265Z,54.88
2018-04-23T18:50:35.780Z,57.15
2018-04-23T18:53:03.384Z,56.22
2018-04-23T18:55:31.003Z,54.67
2018-04-23T18:57:58.617Z,57.60
2018-04-23T19:00:26.149Z,58.47
2018-04-23T19:02:53.630Z,57.30
2018-04-23T19:05:21.126Z,55.91
2018-04-23T19:07:48.611Z,58.24
2018-04-23T19:10:16.686Z,55.10
2018-04-23T19:12:44.316Z,55.51
2018-04-23T19:15:11.873Z,54.17
2018-04-23T19:17:39.402Z,56.58
2018-04-23T19:20:07.238Z,53.73
2018-04-23T19:22:34.763Z,56.95
2018-04-23T19:25:02.273Z,56.82
2018-04-23T19:27:29.752Z,53.21
2018-04-23T19:29:57.367Z,56.78
2018-04-23T19:32:24.979Z,54.31
2018-04-23T19:34:52.845Z,54.52
2018-04-23T19:37:20.543Z,56.02
2018-04-23T19:39:48.025Z,55.28
2018-04-23T19:42:15.698Z,56.28
2018-04-23T19:44:43.204Z,56.38
2018-04-23T19:47:10.861Z,55.62
2018-04-23T19:49:38.370Z,54.50
2018-04-23T19:52:05.920Z,53.63
2018-04-23T19:54:33.387Z,54.56
2018-04-23T19:57:00.873Z,54.35
2018-04-23T19:59:28.459Z,55.10
2018-04-23T20:01:55.961Z,54.22
2018-04-23T20:04:23.414Z,54.87
2018-04-23T20:06:50.910Z,55.06
2018-04-23T20:09:18.522Z,55.21
2018-04-23T20:11:46.074Z,54.16
2018-04-23T20:14:13.633Z,55.69
2018-04-23T20:16:41.234Z,55.19
2018-04-23T20:19:08.835Z,55.29
2018-04-23T20:21:36.377Z,56.49
2018-04-23T20:24:03.899Z,56.30
2018-04-23T20:26:31.585Z,56.03
2018-04-23T20:28:59.146Z,57.20
2018-04-23T20:31:26.723Z,57.99
2018-04-23T20:33:54.241Z,57.86
2018-04-23T20:36:21.851Z,58.46
2018-04-23T20:38:49.370Z,57.93
2018-04-23T20:41:16.888Z,58.59
2018-04-23T20:43:44.449Z,58.84
2018-04-23T20:46:11.952Z,57.99
2018-04-23T20:48:39.477Z,59.64
2018-04-23T20:51:07.011Z,57.78
2018-04-23T20:53:34.515Z,58.61
2018-04-23T20:56:02.093Z,61.06
2018-04-23T20:58:29.790Z,60.11
2018-04-23T21:00:57.333Z,61.19
2018-04-23T21:03:24.820Z,60.42
2018-04-23T21:05:52.325Z,61.25
2018-04-23T21:08:19.817Z,59.90
2018-04-23T21:10:47.301Z,59.42
2018-04-23T21:13:14.774Z,58.40
2018-04-23T21:15:42.285Z,60.29
2018-04-23T21:18:10.761Z,61.32
2018-04-23T21:20:38.239Z,59.75
2018-04-23T21:23:05.696Z,60.07
2018-04-23T21:25:33.200Z,59.45
2018-04-23T21:28:00.700Z,58.98
2018-04-23T21:30:29.990Z,59.03
2018-04-23T21:32:57.454Z,58.11
2018-04-23T21:35:25.051Z,59.65
2018-04-23T21:37:52.558Z,59.01
2018-04-23T21:40:20.072Z,60.02
2018-04-23T21:42:47.621Z,59.55
2018-04-23T21:45:15.139Z,57.60
2018-04-23T21:47:42.716Z,58.46
2018-04-23T21:50:10.202Z,60.37
2018-04-23T21:52:37.708Z,60.48
2018-04-23T21:55:05.188Z,60.48
2018-04-23T21:57:32.692Z,61.19
2018-04-23T22:00:00.160Z,61.32
2018-04-23T22:02:27.696Z,61.42
2018-04-23T22:04:55.284Z,63.53
2018-04-23T22:07:22.921Z,64.05
2018-04-23T22:09:50.640Z,62.81
2018-04-23T22:12:18.165Z,63.02
2018-04-23T22:14:45.754Z,63.01
2018-04-23T22:17:13.325Z,63.36
2018-04-23T22:19:40.874Z,63.49
2018-04-23T22:22:09.509Z,62.79
2018-04-23T22:24:37.151Z,64.24
2018-04-23T22:27:04.719Z,64.82
2018-04-23T22:29:32.316Z,64.43
2018-04-23T22:31:59.960Z,64.21
2018-04-23T22:34:27.479Z,64.50
2018-04-23T22:36:55.000Z,64.95
2018-04-23T22:39:22.540Z,64.84
2018-04-23T22:41:50.281Z,64.16
2018-04-23T22:44:17.950Z,63.56
2018-04-23T22:46:45.513Z,62.00
2018-04-23T22:49:13.062Z,64.09
2018-04-23T22:51:40.589Z,63.90
2018-04-23T22:54:08.327Z,63.83
2018-04-23T22:56:35.870Z,63.51
2018-04-23T22:59:03.400Z,64.50
2018-04-23T23:01:30.955Z,63.98
2018-04-23T23:03:58.483Z,63.17
2018-04-23T23:06:26.023Z,65.13
2018-04-23T23:08:53.728Z,65.07
2018-04-23T23:11:21.246Z,62.32
2018-04-23T23:13:49.126Z,62.91
2018-04-23T23:16:16.673Z,64.36
2018-04-23T23:18:44.205Z,65.13
2018-04-23T23:21:11.716Z,63.81
2018-04-23T23:23:39.265Z,62.60
2018-04-23T23:26:06.823Z,63.81
2018-04-23T23:28:34.368Z,64.36
2018-04-23T23:31:01.932Z,65.98
2018-04-23T23:33:29.457Z,64.75
2018-04-23T23:35:57.279Z,64.93
2018-04-23T23:38:24.951Z,64.72
2018-04-23T23:40:52.539Z,63.05
2018-04-23T23:43:20.103Z,64.39
2018-04-23T23:45:47.647Z,64.31
2018-04-23T23:48:15.141Z,66.23
2018-04-23T23:50:42.619Z,65.76
2018-04-23T23:53:10.129Z,64.48
2018-04-23T23:55:37.612Z,64.32
2018-04-23T23:58:05.073Z,63.55
